Time;durP1;ratioP1;P1;durP2;ratioP2;P2;SDS_P1;SDS_P2;PMS_P1;PMS_P2;Temp;Humidity;BMP_temperature;BMP_pressure;BME280_temperature;BME280_humidity;BME280_pressure;Samples;Min_cycle;Max_cycle;Signal;HPM_P1;HPM_P2
2021/05/26 00:01:55;;;;;;;0.90;0.60;;;10.30;86.80;;;;;;5044632;28;19926;-71
2021/05/26 00:04:21;;;;;;;3.42;0.80;;;10.30;87.00;;;;;;5043475;28;20029;-71
2021/05/26 00:06:46;;;;;;;;;;;10.20;87.00;;;;;;5047485;28;20037;-71
2021/05/26 00:09:12;;;;;;;1.42;0.68;;;10.20;87.00;;;;;;5044590;28;19913;-72
2021/05/26 00:11:37;;;;;;;;;;;10.20;87.30;;;;;;5047965;28;20033;-73
2021/05/26 00:14:03;;;;;;;2.78;1.02;;;10.20;87.30;;;;;;5045807;28;19944;-70
2021/05/26 00:16:30;;;;;;;;;;;10.10;87.70;;;;;;5048159;28;20025;-71
2021/05/26 00:18:56;;;;;;;2.67;0.80;;;10.20;87.60;;;;;;5043899;28;19912;-71
2021/05/26 00:21:23;;;;;;;;;;;10.20;87.70;;;;;;5046006;28;20033;-71
2021/05/26 00:23:49;;;;;;;;;;;10.20;87.90;;;;;;5052695;28;20345;-71
2021/05/26 00:26:14;;;;;;;3.25;0.77;;;10.20;87.60;;;;;;5046525;28;19912;-71
2021/05/26 00:28:42;;;;;;;;;;;10.20;87.70;;;;;;5047910;28;20025;-71
2021/05/26 00:31:09;;;;;;;2.60;0.90;;;10.20;87.60;;;;;;5049957;28;19944;-71
2021/05/26 00:33:35;;;;;;;2.15;0.93;;;10.30;87.60;;;;;;5050488;28;20021;-71
2021/05/26 00:36:00;;;;;;;;;;;10.30;88.00;;;;;;5050001;28;20028;-71
2021/05/26 00:38:26;;;;;;;6.00;1.60;;;10.30;88.70;;;;;;5045263;28;20628;-71
2021/05/26 00:40:52;;;;;;;;;;;10.30;88.90;;;;;;5045724;28;20079;-71
2021/05/26 00:43:17;;;;;;;1.60;1.13;;;10.20;88.90;;;;;;5047842;28;19920;-71
2021/05/26 00:45:43;;;;;;;;;;;10.30;89.40;;;;;;5049765;28;20025;-71
2021/05/26 00:48:09;;;;;;;1.05;0.75;;;10.20;89.80;;;;;;5048123;28;20361;-71
2021/05/26 00:50:36;;;;;;;2.80;1.05;;;10.20;89.70;;;;;;5047434;28;20028;-71
2021/05/26 00:53:07;;;;;;;1.20;0.93;;;10.20;89.90;;;;;;5047521;28;20051;-71
2021/05/26 00:55:34;;;;;;;2.80;1.05;;;10.20;90.10;;;;;;5049017;28;20114;-71
2021/05/26 00:58:00;;;;;;;2.25;1.13;;;10.20;90.30;;;;;;5047100;28;20395;-71
2021/05/26 01:00:28;;;;;;;1.95;1.02;;;10.10;90.20;;;;;;5048773;28;20124;-71
2021/05/26 01:02:53;;;;;;;1.60;1.30;;;10.20;90.10;;;;;;5049588;28;20523;-71
2021/05/26 01:05:20;;;;;;;;;;;10.20;90.00;;;;;;5050347;28;20052;-71
2021/05/26 01:07:46;;;;;;;2.58;1.20;;;10.20;90.00;;;;;;5047803;28;19944;-71
2021/05/26 01:10:13;;;;;;;;;;;10.20;89.70;;;;;;5044152;28;20052;-71
2021/05/26 01:12:38;;;;;;;2.42;1.10;;;10.20;89.70;;;;;;5049203;28;19992;-71
2021/05/26 01:15:05;;;;;;;;;;;10.20;89.50;;;;;;5049501;28;20129;-71
2021/05/26 01:17:31;;;;;;;1.00;0.90;;;10.20;89.50;;;;;;5048014;28;19916;-71
2021/05/26 01:19:56;;;;;;;;;;;10.20;89.50;;;;;;5046251;28;20083;-71
2021/05/26 01:22:22;;;;;;;2.90;0.88;;;10.20;89.70;;;;;;5047477;28;19970;-71
2021/05/26 01:24:47;;;;;;;5.40;1.77;;;10.20;89.50;;;;;;5049080;28;20563;-71
2021/05/26 01:27:13;;;;;;;4.38;1.63;;;10.20;89.50;;;;;;5048886;28;20031;-71
2021/05/26 01:29:39;;;;;;;;;;;10.20;89.50;;;;;;5050205;28;20400;-71
2021/05/26 01:32:05;;;;;;;1.73;0.80;;;10.20;89.60;;;;;;5049095;28;19912;-71
2021/05/26 01:34:30;;;;;;;;;;;10.20;89.60;;;;;;5047759;28;20032;-71
2021/05/26 01:36:56;;;;;;;0.82;0.68;;;10.20;89.30;;;;;;5049358;28;19913;-71
2021/05/26 01:39:21;;;;;;;;;;;10.20;89.30;;;;;;5049388;28;20021;-71
2021/05/26 01:41:47;;;;;;;3.28;1.20;;;10.20;89.20;;;;;;5048170;28;20022;-71
2021/05/26 01:44:12;;;;;;;;;;;10.20;89.30;;;;;;5047809;28;20033;-71
2021/05/26 01:46:39;;;;;;;7.55;1.92;;;10.20;89.20;;;;;;5064756;28;19996;-71
2021/05/26 01:49:06;;;;;;;6.95;1.85;;;10.20;89.20;;;;;;5048464;28;20134;-71
2021/05/26 01:51:32;;;;;;;2.63;1.08;;;10.20;89.30;;;;;;5049784;28;20021;-71
2021/05/26 01:53:58;;;;;;;3.47;0.82;;;10.20;89.20;;;;;;5048605;28;20108;-71
2021/05/26 01:56:24;;;;;;;;;;;10.20;89.30;;;;;;5049412;28;20148;-71
2021/05/26 01:58:51;;;;;;;4.28;2.55;;;10.20;89.50;;;;;;5047401;28;19905;-71
2021/05/26 02:01:17;;;;;;;9.93;6.40;;;10.20;89.90;;;;;;5046050;28;20055;-71
2021/05/26 02:03:44;;;;;;;6.00;3.08;;;10.10;90.10;;;;;;5047990;28;20041;-71
2021/05/26 02:06:12;;;;;;;3.92;2.17;;;10.10;90.20;;;;;;5046546;28;20128;-71
2021/05/26 02:08:38;;;;;;;2.35;1.55;;;10.10;90.50;;;;;;5046867;28;20029;-71
2021/05/26 02:13:47;;;;;;;4.55;1.73;;;10.00;90.60;;;;;;5045928;28;19962;-71
2021/05/26 02:16:13;;;;;;;;;;;10.00;90.90;;;;;;5046989;28;20664;-71
2021/05/26 02:18:38;;;;;;;2.22;1.90;;;10.00;90.90;;;;;;5045706;28;19944;-71
2021/05/26 02:21:04;;;;;;;;;;;9.90;91.00;;;;;;5047499;28;20033;-71
2021/05/26 02:23:29;;;;;;;4.07;1.70;;;9.90;91.00;;;;;;5048782;28;19909;-71
2021/05/26 02:25:55;;;;;;;2.47;1.70;;;9.90;91.10;;;;;;5045906;28;20365;-71
2021/05/26 02:28:20;;;;;;;;;;;9.90;91.20;;;;;;5049165;28;20036;-71
2021/05/26 02:30:46;;;;;;;2.65;2.30;;;9.90;91.20;;;;;;5048041;28;19905;-71
2021/05/26 02:33:12;;;;;;;4.03;1.90;;;9.90;91.30;;;;;;5048378;28;20028;-71
2021/05/26 02:35:37;;;;;;;;;;;9.90;91.30;;;;;;5045922;28;20045;-71
2021/05/26 02:38:03;;;;;;;3.13;1.67;;;9.90;91.40;;;;;;5045963;28;19916;-71
2021/05/26 02:40:33;;;;;;;2.47;1.35;;;9.90;91.40;;;;;;5047213;28;20025;-71
2021/05/26 02:42:58;;;;;;;4.70;2.10;;;9.90;91.30;;;;;;5048257;28;20057;-71
2021/05/26 02:45:24;;;;;;;;;;;9.90;91.30;;;;;;5046574;28;20072;-71
2021/05/26 02:47:49;;;;;;;1.73;1.48;;;9.90;91.40;;;;;;5047639;28;19958;-71
2021/05/26 02:50:18;;;;;;;;;;;9.90;91.30;;;;;;5046621;28;20032;-71
2021/05/26 02:52:47;;;;;;;3.47;1.85;;;9.80;91.40;;;;;;5046875;28;20007;-71
2021/05/26 02:55:14;;;;;;;2.08;1.75;;;9.90;91.40;;;;;;5043527;28;20021;-71
2021/05/26 02:57:40;;;;;;;5.78;2.47;;;9.90;91.50;;;;;;5045969;28;20025;-71
2021/05/26 03:00:06;;;;;;;;;;;9.90;91.50;;;;;;5044734;28;20079;-72
2021/05/26 03:02:31;;;;;;;4.22;2.47;;;9.90;91.60;;;;;;5045218;28;19986;-72
2021/05/26 03:04:57;;;;;;;;;;;9.90;91.60;;;;;;5047334;28;20135;-72
2021/05/26 03:07:22;;;;;;;5.65;2.30;;;9.80;91.80;;;;;;5047074;28;20419;-72
2021/05/26 03:09:48;;;;;;;;;;;9.80;91.80;;;;;;5042699;28;20033;-72
2021/05/26 03:12:13;;;;;;;2.92;2.20;;;9.80;92.10;;;;;;5046766;28;20279;-72
2021/05/26 03:14:39;;;;;;;;;;;9.80;92.00;;;;;;5048449;28;20029;-72
2021/05/26 03:17:04;;;;;;;4.90;2.72;;;9.80;92.00;;;;;;5052434;28;19913;-72
2021/05/26 03:19:30;;;;;;;2.60;2.30;;;9.80;92.10;;;;;;5046076;28;20112;-72
2021/05/26 03:21:55;;;;;;;;;;;9.80;92.00;;;;;;5046061;28;20037;-72
2021/05/26 03:24:21;;;;;;;4.53;2.65;;;9.80;92.00;;;;;;5048211;28;19909;-72
2021/05/26 03:26:46;;;;;;;;;;;9.90;92.00;;;;;;5047056;28;20029;-72
2021/05/26 03:29:12;;;;;;;6.10;2.80;;;9.90;92.00;;;;;;5043651;28;19909;-72
2021/05/26 03:31:38;;;;;;;;;;;9.90;91.90;;;;;;5046336;28;20460;-71
2021/05/26 03:34:04;;;;;;;5.03;2.47;;;9.90;91.90;;;;;;5045735;28;19908;-72
2021/05/26 03:36:30;;;;;;;3.47;2.15;;;9.90;91.80;;;;;;5047257;28;20021;-71
2021/05/26 03:38:55;;;;;;;;;;;9.90;91.80;;;;;;5046365;28;20120;-71
2021/05/26 03:41:21;;;;;;;3.03;2.00;;;9.90;91.70;;;;;;5046517;28;19931;-72
2021/05/26 03:43:46;;;;;;;;;;;9.90;91.60;;;;;;5047722;28;20539;-72
2021/05/26 03:46:12;;;;;;;3.35;2.65;;;9.90;91.60;;;;;;5044869;28;20383;-72
2021/05/26 03:48:37;;;;;;;;;;;9.90;91.50;;;;;;5043999;28;20040;-72
2021/05/26 03:51:03;;;;;;;7.38;2.38;;;9.90;91.60;;;;;;5047198;28;19912;-71
2021/05/26 03:53:29;;;;;;;5.88;2.63;;;9.90;91.50;;;;;;5045159;28;20032;-71
2021/05/26 03:55:54;;;;;;;;;;;9.90;91.30;;;;;;5048576;28;20515;-71
2021/05/26 03:58:20;;;;;;;3.13;2.50;;;10.00;91.30;;;;;;5045523;28;19917;-71
2021/05/26 04:00:45;;;;;;;;;;;9.90;91.20;;;;;;5045550;28;20033;-71
2021/05/26 04:03:11;;;;;;;4.70;2.67;;;10.00;91.30;;;;;;5049407;28;19923;-71
2021/05/26 04:05:36;;;;;;;4.35;2.72;;;10.00;91.20;;;;;;5048944;28;20119;-71
2021/05/26 04:08:02;;;;;;;6.75;2.35;;;10.00;91.20;;;;;;5047998;28;20108;-71
2021/05/26 04:10:27;;;;;;;;;;;10.00;91.00;;;;;;5049418;28;20064;-72
2021/05/26 04:12:53;;;;;;;2.90;2.45;;;10.00;91.00;;;;;;5045535;28;20015;-71
2021/05/26 04:15:18;;;;;;;;;;;10.10;91.00;;;;;;5050708;28;20117;-71
2021/05/26 04:17:44;;;;;;;3.58;2.22;;;10.10;90.90;;;;;;5048984;28;19947;-72
2021/05/26 04:20:10;;;;;;;;;;;10.30;90.70;;;;;;5049632;28;20044;-71
2021/05/26 04:22:36;;;;;;;5.88;2.50;;;10.70;90.50;;;;;;5046642;28;20372;-72
2021/05/26 04:25:04;;;;;;;5.35;2.10;;;11.40;89.20;;;;;;5047765;28;20464;-72
2021/05/26 04:27:30;;;;;;;7.57;2.45;;;11.60;87.30;;;;;;5048161;28;20041;-72
2021/05/26 04:29:56;;;;;;;;;;;11.60;86.50;;;;;;5046480;28;20592;-71
2021/05/26 04:32:21;;;;;;;4.57;2.30;;;11.50;86.90;;;;;;5043835;28;20008;-72
2021/05/26 04:34:47;;;;;;;;;;;11.40;86.80;;;;;;5043751;28;20120;-72
2021/05/26 04:37:13;;;;;;;5.60;3.08;;;11.20;86.70;;;;;;5046630;28;19948;-72
2021/05/26 04:39:38;;;;;;;15.18;6.03;;;11.00;87.00;;;;;;5045936;28;20530;-72
2021/05/26 04:42:04;;;;;;;;;;;10.90;87.40;;;;;;5048483;28;20808;-71
2021/05/26 04:44:29;;;;;;;10.63;4.78;;;10.80;87.90;;;;;;5048004;28;20373;-72
2021/05/26 04:46:55;;;;;;;13.93;7.70;;;10.60;88.30;;;;;;5046843;28;20029;-71
2021/05/26 04:49:20;;;;;;;;;;;10.60;88.50;;;;;;5048677;28;20044;-71
2021/05/26 04:51:46;;;;;;;7.28;3.83;;;10.60;88.80;;;;;;5047095;28;20011;-72
2021/05/26 04:54:11;;;;;;;;;;;10.50;89.20;;;;;;5047719;28;20357;-72
2021/05/26 04:56:37;;;;;;;4.50;2.70;;;10.50;89.40;;;;;;5046347;28;19927;-72
2021/05/26 04:59:02;;;;;;;;;;;10.50;89.70;;;;;;5047192;28;20468;-72
2021/05/26 05:01:28;;;;;;;10.60;3.72;;;10.50;89.70;;;;;;5048259;28;20374;-72
2021/05/26 05:03:53;;;;;;;;;;;10.60;89.60;;;;;;5047777;28;20495;-73
2021/05/26 05:06:20;;;;;;;7.40;3.25;;;10.60;89.60;;;;;;5044576;28;20050;-74
2021/05/26 05:08:46;;;;;;;4.00;2.45;;;11.00;89.20;;;;;;5045546;28;20144;-74
2021/05/26 05:11:12;;;;;;;;;;;11.50;88.20;;;;;;5048870;28;20032;-74
2021/05/26 05:13:37;;;;;;;3.03;1.40;;;11.70;86.20;;;;;;5049011;28;19912;-74
2021/05/26 05:16:03;;;;;;;;;;;12.00;85.20;;;;;;5048325;28;20060;-74
2021/05/26 05:18:28;;;;;;;5.68;2.42;;;12.80;83.20;;;;;;5049642;28;19912;-74
2021/05/26 05:20:54;;;;;;;;;;;13.60;79.50;;;;;;5047225;28;20047;-74
2021/05/26 05:23:19;;;;;;;3.85;1.45;;;14.30;77.30;;;;;;5048059;28;20430;-75
2021/05/26 05:25:45;;;;;;;;;;;14.70;75.10;;;;;;5050577;28;20388;-74
2021/05/26 05:28:11;;;;;;;4.85;1.73;;;15.10;74.40;;;;;;5048270;28;19916;-74
2021/05/26 05:30:37;;;;;;;6.50;2.15;;;15.60;71.00;;;;;;5049356;28;20013;-74
2021/05/26 05:33:02;;;;;;;;;;;15.40;71.40;;;;;;5048866;28;20043;-74
2021/05/26 05:35:28;;;;;;;6.82;1.67;;;14.90;72.60;;;;;;5049770;28;19913;-74
2021/05/26 05:37:53;;;;;;;;;;;14.50;72.60;;;;;;5050222;28;20037;-74
2021/05/26 05:40:19;;;;;;;8.90;2.92;;;14.20;74.60;;;;;;5049026;28;20302;-74
2021/05/26 05:42:44;;;;;;;;;;;13.80;75.10;;;;;;5049001;28;20063;-74
2021/05/26 05:45:10;;;;;;;4.20;1.50;;;13.50;76.60;;;;;;5051238;22;19926;-71
2021/05/26 05:47:36;;;;;;;;;;;13.20;76.90;;;;;;5017173;28;20037;-68
2021/05/26 05:50:04;;;;;;;10.68;4.10;;;13.10;78.00;;;;;;5014656;28;19916;-71
2021/05/26 05:52:29;;;;;;;12.57;5.30;;;13.00;78.70;;;;;;5014456;28;20380;-70
2021/05/26 05:54:55;;;;;;;;;;;12.80;78.30;;;;;;5015736;28;20118;-70
2021/05/26 05:57:20;;;;;;;8.10;4.88;;;12.70;78.40;;;;;;5005254;28;19921;-70
2021/05/26 05:59:46;;;;;;;;;;;12.70;78.90;;;;;;5004920;28;20042;-70
2021/05/26 06:02:11;;;;;;;8.27;4.57;;;12.60;79.30;;;;;;5003106;28;19917;-70
2021/05/26 06:04:37;;;;;;;;;;;12.50;79.70;;;;;;4998381;28;20030;-70
2021/05/26 06:07:02;;;;;;;7.95;2.60;;;12.50;80.20;;;;;;5008954;28;19928;-73
2021/05/26 06:09:27;;;;;;;;;;;12.50;80.00;;;;;;4996473;28;20026;-71
2021/05/26 06:11:55;;;;;;;7.68;3.08;;;12.50;79.80;;;;;;5002575;28;19917;-71
2021/05/26 06:14:20;;;;;;;7.38;1.92;;;12.50;79.60;;;;;;5007457;28;20137;-71
2021/05/26 06:16:46;;;;;;;;;;;12.50;79.80;;;;;;5001279;28;20582;-71
2021/05/26 06:19:12;;;;;;;10.13;2.50;;;12.60;79.70;;;;;;5005723;28;19909;-71
2021/05/26 06:21:38;;;;;;;6.35;2.20;;;12.70;79.10;;;;;;5014190;28;20496;-71
2021/05/26 06:24:03;;;;;;;;;;;12.90;78.60;;;;;;5003687;28;20037;-71
2021/05/26 06:26:31;;;;;;;7.45;2.63;;;13.10;78.00;;;;;;5003467;28;19913;-72
2021/05/26 06:29:01;;;;;;;28.70;4.50;;;13.30;77.40;;;;;;4999625;28;20105;-71
2021/05/26 06:31:26;;;;;;;24.92;6.15;;;13.50;76.50;;;;;;4999403;28;20033;-74
2021/05/26 06:33:52;;;;;;;;;;;13.70;76.10;;;;;;5006922;28;20034;-72
2021/05/26 06:36:18;;;;;;;16.30;2.63;;;13.90;75.10;;;;;;5003831;28;20383;-74
2021/05/26 06:38:43;;;;;;;;;;;14.00;74.80;;;;;;5003322;28;20033;-72
2021/05/26 06:41:10;;;;;;;9.13;1.92;;;14.10;75.40;;;;;;5000408;28;19913;-75
2021/05/26 06:43:35;;;;;;;6.68;3.17;;;14.30;73.90;;;;;;5005412;28;20022;-74
2021/05/26 06:46:01;;;;;;;;;;;14.30;72.00;;;;;;5006243;28;20109;-75
2021/05/26 06:48:26;;;;;;;12.40;3.38;;;14.20;72.60;;;;;;5004893;28;19913;-74
2021/05/26 06:50:52;;;;;;;;;;;14.20;73.30;;;;;;5004197;28;20108;-75
2021/05/26 06:53:17;;;;;;;4.18;2.22;;;14.30;72.60;;;;;;5004728;28;19913;-74
2021/05/26 06:55:43;;;;;;;;;;;14.30;72.10;;;;;;5005330;28;20107;-75
2021/05/26 06:58:09;;;;;;;8.40;1.73;;;14.30;72.70;;;;;;5004889;28;20326;-74
2021/05/26 07:00:34;;;;;;;;;;;14.20;71.00;;;;;;5006060;28;20440;-72
2021/05/26 07:03:01;;;;;;;18.95;2.40;;;14.20;72.20;;;;;;5014357;28;19940;-72
2021/05/26 07:05:27;;;;;;;11.02;2.65;;;14.30;72.10;;;;;;5008343;28;20790;-73
2021/05/26 07:07:53;;;;;;;15.20;2.38;;;14.40;72.40;;;;;;5005272;28;20030;-74
2021/05/26 07:10:19;;;;;;;8.13;2.78;;;14.40;72.10;;;;;;4997872;28;20801;-74
2021/05/26 07:12:46;;;;;;;;;;;14.40;72.00;;;;;;5008673;28;20076;-74
2021/05/26 07:15:15;;;;;;;11.98;2.20;;;14.40;70.70;;;;;;5006199;28;19964;-74
2021/05/26 07:17:41;;;;;;;15.20;2.45;;;14.40;70.80;;;;;;5005833;28;20030;-74
2021/05/26 07:20:07;;;;;;;;;;;14.40;70.80;;;;;;5003670;28;20033;-75
2021/05/26 07:22:32;;;;;;;12.25;2.85;;;14.50;71.30;;;;;;5005594;28;19921;-75
2021/05/26 07:24:57;;;;;;;;;;;14.60;70.70;;;;;;5005186;28;20041;-71
2021/05/26 07:27:23;;;;;;;10.43;2.95;;;14.70;70.70;;;;;;4999860;28;20322;-75
2021/05/26 07:29:49;;;;;;;;;;;14.80;68.80;;;;;;5004200;28;20033;-75
2021/05/26 07:32:14;;;;;;;11.57;2.80;;;14.80;68.80;;;;;;5015131;28;19935;-75
2021/05/26 07:34:40;;;;;;;;;;;14.80;68.10;;;;;;5002897;28;20049;-74
2021/05/26 07:37:05;;;;;;;7.47;2.63;;;14.80;68.90;;;;;;5007918;28;20000;-74
2021/05/26 07:39:35;;;;;;;;;;;14.90;68.60;;;;;;5009811;28;20018;-75
2021/05/26 07:42:04;;;;;;;4.25;1.25;;;15.00;68.30;;;;;;5009245;28;19915;-75
2021/05/26 07:44:30;;;;;;;6.65;1.38;;;15.10;67.60;;;;;;5004675;28;20041;-75
2021/05/26 07:46:55;;;;;;;;;;;15.20;66.50;;;;;;5008034;28;20028;-75
2021/05/26 07:49:22;;;;;;;14.00;1.83;;;15.10;67.40;;;;;;5008200;28;19963;-75
2021/05/26 07:51:52;;;;;;;5.00;1.65;;;15.10;67.10;;;;;;5008123;28;20076;-75
2021/05/26 07:54:18;;;;;;;6.55;1.90;;;15.00;67.10;;;;;;5009412;28;20030;-71
2021/05/26 07:56:45;;;;;;;12.88;2.72;;;14.90;67.60;;;;;;5009521;28;20057;-73
2021/05/26 07:59:10;;;;;;;8.32;2.63;;;14.80;67.80;;;;;;5002451;28;20041;-73
2021/05/26 08:01:36;;;;;;;;;;;14.80;67.60;;;;;;5008938;28;20034;-73
2021/05/26 08:04:02;;;;;;;10.27;2.20;;;14.60;67.80;;;;;;5006422;28;19913;-73
2021/05/26 08:06:28;;;;;;;6.00;1.48;;;14.60;68.50;;;;;;5009065;28;20116;-72
2021/05/26 08:08:53;;;;;;;;;;;14.60;68.90;;;;;;5015896;28;20437;-73
2021/05/26 08:11:19;;;;;;;7.13;1.58;;;14.60;68.70;;;;;;5006219;28;19917;-73
2021/05/26 08:13:44;;;;;;;9.63;1.67;;;14.60;68.60;;;;;;5002300;28;20493;-74
2021/05/26 08:16:10;;;;;;;;;;;14.70;68.50;;;;;;5007586;28;20088;-74
2021/05/26 08:18:36;;;;;;;14.30;2.40;;;14.80;68.40;;;;;;5006737;28;19909;-74
2021/05/26 08:21:02;;;;;;;18.73;2.58;;;14.80;67.40;;;;;;5018209;28;20116;-75
2021/05/26 08:23:28;;;;;;;23.02;3.22;;;14.80;67.20;;;;;;5008186;28;20041;-75
2021/05/26 08:25:53;;;;;;;;;;;14.80;67.20;;;;;;5009223;28;20033;-75
2021/05/26 08:28:19;;;;;;;19.42;3.53;;;14.90;67.30;;;;;;5007710;28;20357;-76
2021/05/26 08:30:45;;;;;;;;;;;15.10;67.40;;;;;;5008364;28;20029;-74
2021/05/26 08:33:11;;;;;;;37.65;4.88;;;15.10;66.50;;;;;;5005314;28;19940;-73
2021/05/26 08:35:36;;;;;;;48.25;6.20;;;15.20;65.70;;;;;;5008793;28;20022;-72
2021/05/26 08:38:02;;;;;;;;;;;15.30;65.70;;;;;;5008404;28;20538;-74
2021/05/26 08:40:30;;;;;;;14.55;2.80;;;15.30;64.80;;;;;;5004730;28;19909;-75
2021/05/26 08:42:57;;;;;;;24.35;3.45;;;15.50;65.20;;;;;;5008416;28;20026;-75
2021/05/26 08:45:23;;;;;;;11.00;2.00;;;15.60;64.00;;;;;;5006486;28;20092;-75
2021/05/26 08:47:52;;;;;;;10.02;2.55;;;15.60;63.70;;;;;;5002291;28;20034;-75
2021/05/26 08:50:18;;;;;;;8.93;1.45;;;15.70;63.10;;;;;;5006330;28;20030;-74
2021/05/26 08:52:44;;;;;;;5.72;1.67;;;15.80;63.00;;;;;;5000670;28;20049;-74
2021/05/26 08:55:12;;;;;;;5.22;1.73;;;15.80;62.30;;;;;;5007690;28;20124;-75
2021/05/26 08:57:38;;;;;;;14.15;1.88;;;15.80;62.70;;;;;;5010122;28;20424;-77
2021/05/26 09:00:05;;;;;;;43.95;4.57;;;15.70;63.30;;;;;;5005081;28;20088;-73
2021/05/26 09:02:31;;;;;;;9.15;1.55;;;15.50;63.50;;;;;;5006579;28;20034;-73
2021/05/26 09:04:56;;;;;;;7.53;1.73;;;15.40;64.10;;;;;;5007439;28;20033;-73
2021/05/26 09:07:22;;;;;;;30.00;2.97;;;15.60;64.10;;;;;;5007643;28;20046;-73
2021/05/26 09:09:58;;;;;;;3.83;1.92;;;15.70;63.60;;;;;;5006079;28;20030;-73
2021/05/26 09:12:25;;;;;;;11.20;2.10;;;15.90;63.40;;;;;;5009357;28;20018;-72
2021/05/26 09:14:50;;;;;;;11.20;2.15;;;16.00;62.60;;;;;;5007826;28;20025;-74
2021/05/26 09:17:16;;;;;;;7.43;1.95;;;16.10;62.00;;;;;;5007255;28;20034;-76
2021/05/26 09:19:41;;;;;;;2.03;1.40;;;16.40;61.70;;;;;;5004789;28;20497;-70
2021/05/26 09:22:14;;;;;;;;;;;16.50;60.50;;;;;;4996648;28;20021;-71
2021/05/26 09:24:41;;;;;;;7.80;1.45;;;16.60;60.70;;;;;;5007772;28;20164;-72
2021/05/26 09:27:12;;;;;;;5.00;1.13;;;16.60;60.40;;;;;;5006088;28;20026;-75
2021/05/26 09:29:44;;;;;;;3.80;1.23;;;16.60;60.50;;;;;;5006010;28;20081;-73
2021/05/26 09:32:13;;;;;;;6.10;1.50;;;16.50;60.50;;;;;;5006737;28;20032;-74
2021/05/26 09:34:44;;;;;;;3.00;1.42;;;16.40;60.70;;;;;;5007008;28;20026;-74
2021/05/26 09:37:27;;;;;;;6.00;1.23;;;16.40;61.10;;;;;;5006734;28;20025;-73
2021/05/26 09:39:52;;;;;;;5.45;1.20;;;16.20;61.00;;;;;;5001697;28;20022;-73
2021/05/26 09:42:28;;;;;;;5.75;1.45;;;16.10;61.70;;;;;;5015780;28;20036;-73
2021/05/26 09:45:17;;;;;;;1.80;0.80;;;15.90;61.50;;;;;;5004554;28;20042;-73
2021/05/26 09:47:46;;;;;;;4.80;1.00;;;15.70;63.00;;;;;;5006804;28;20085;-76
2021/05/26 09:50:32;;;;;;;8.00;2.05;;;15.50;65.70;;;;;;5001383;28;20137;-75
2021/05/26 09:53:11;;;;;;;4.55;1.40;;;15.40;66.20;;;;;;5004834;28;20030;-74
2021/05/26 09:55:45;;;;;;;5.07;1.58;;;15.30;66.10;;;;;;5004868;28;20021;-73
2021/05/26 09:58:12;;;;;;;3.20;1.00;;;15.30;66.00;;;;;;5003681;28;20623;-72
2021/05/26 10:00:40;;;;;;;33.40;3.05;;;15.20;65.70;;;;;;5005704;28;20120;-73
2021/05/26 10:03:07;;;;;;;7.05;1.10;;;15.20;65.80;;;;;;5006765;28;20072;-72
2021/05/26 10:05:34;;;;;;;6.68;2.13;;;15.30;65.50;;;;;;5004250;28;20492;-72
2021/05/26 10:08:00;;;;;;;6.65;1.75;;;15.30;65.60;;;;;;5003319;28;20030;-72
2021/05/26 10:10:30;;;;;;;24.50;3.55;;;15.40;65.40;;;;;;5004228;28;20033;-72
2021/05/26 10:13:02;;;;;;;11.40;1.50;;;15.50;64.90;;;;;;5004075;28;20026;-72
2021/05/26 10:15:28;;;;;;;16.17;1.65;;;15.70;63.80;;;;;;5005228;28;20026;-71
2021/05/26 10:17:55;;;;;;;15.13;1.90;;;15.70;62.90;;;;;;5004556;28;20425;-72
2021/05/26 10:20:26;;;;;;;12.48;2.28;;;15.60;63.00;;;;;;5006133;28;20041;-72
2021/05/26 10:22:54;;;;;;;7.05;1.45;;;15.50;63.20;;;;;;5004287;28;20392;-71
2021/05/26 10:25:21;;;;;;;7.60;0.90;;;15.50;62.80;;;;;;5003707;28;20018;-71
2021/05/26 10:27:56;;;;;;;11.95;1.50;;;15.70;63.30;;;;;;5005591;28;20404;-71
2021/05/26 10:30:25;;;;;;;36.10;4.13;;;15.80;62.80;;;;;;5003556;28;20022;-71
2021/05/26 10:33:04;;;;;;;38.30;3.85;;;15.90;61.60;;;;;;5003496;28;20030;-72
2021/05/26 10:35:30;;;;;;;4.75;0.90;;;16.10;61.50;;;;;;5004328;28;20030;-71
2021/05/26 10:37:57;;;;;;;6.03;1.40;;;16.20;60.60;;;;;;5005682;28;20044;-71
2021/05/26 10:40:30;;;;;;;15.32;1.30;;;16.10;61.30;;;;;;5002848;28;21068;-71
2021/05/26 10:43:17;;;;;;;6.57;1.17;;;16.20;61.20;;;;;;5020224;28;20401;-71
2021/05/26 10:45:44;;;;;;;3.42;0.77;;;16.20;60.60;;;;;;5005935;28;20413;-72
2021/05/26 10:48:10;;;;;;;2.70;0.65;;;16.20;60.80;;;;;;5001269;28;20497;-71
2021/05/26 10:50:48;;;;;;;4.35;0.70;;;16.20;61.00;;;;;;4998907;28;20034;-71
2021/05/26 10:53:16;;;;;;;3.03;1.15;;;16.10;60.90;;;;;;5002557;28;20512;-71
2021/05/26 10:55:52;;;;;;;7.05;0.90;;;16.00;61.60;;;;;;5003236;28;20034;-72
2021/05/26 10:58:23;;;;;;;4.03;1.00;;;15.90;61.30;;;;;;5005363;28;20053;-69
2021/05/26 11:00:55;;;;;;;3.70;1.33;;;15.90;61.90;;;;;;5005805;28;20109;-74
2021/05/26 11:03:29;;;;;;;5.50;1.15;;;15.90;62.20;;;;;;5004508;28;20038;-75
2021/05/26 11:05:56;;;;;;;7.82;1.25;;;15.70;66.80;;;;;;4997013;28;20026;-71
2021/05/26 11:08:51;;;;;;;3.22;1.13;;;15.60;69.70;;;;;;5005961;28;20512;-71
2021/05/26 11:11:38;;;;;;;3.70;0.80;;;15.40;71.40;;;;;;5003572;28;20033;-72
2021/05/26 11:14:04;;;;;;;4.00;0.95;;;15.30;72.70;;;;;;5004658;28;20029;-71
2021/05/26 11:16:45;;;;;;;6.70;1.52;;;15.20;72.80;;;;;;5002185;28;20022;-71
2021/05/26 11:19:22;;;;;;;4.85;1.40;;;15.30;73.60;;;;;;4996899;28;20037;-72
2021/05/26 11:22:13;;;;;;;15.38;1.92;;;15.40;73.00;;;;;;5003835;28;20117;-72
2021/05/26 11:24:44;;;;;;;13.07;1.38;;;15.50;72.50;;;;;;5004071;28;20427;-72
2021/05/26 11:27:18;;;;;;;10.95;1.98;;;15.60;71.10;;;;;;5005148;28;20026;-70
2021/05/26 11:29:44;;;;;;;6.45;2.10;;;15.70;70.00;;;;;;5011980;28;20396;-72
2021/05/26 11:32:18;;;;;;;1.80;1.13;;;15.90;69.60;;;;;;5004102;28;20444;-72
2021/05/26 11:34:48;;;;;;;2.78;1.13;;;16.00;68.80;;;;;;5006250;28;20401;-73
2021/05/26 11:37:33;;;;;;;8.70;1.95;;;16.00;67.70;;;;;;5008163;28;20044;-73
2021/05/26 11:39:59;;;;;;;2.53;1.17;;;16.20;67.80;;;;;;5014431;28;20548;-73
2021/05/26 11:42:30;;;;;;;5.03;1.60;;;16.20;67.30;;;;;;5002110;28;20061;-77
2021/05/26 11:45:07;;;;;;;5.93;1.50;;;16.30;68.70;;;;;;5036857;23;20053;-73
2021/05/26 11:47:38;;;;;;;2.28;1.40;;;16.50;66.60;;;;;;5035855;28;20210;-72
2021/05/26 11:50:13;;;;;;;4.07;1.73;;;16.60;66.50;;;;;;5051668;28;20026;-73
2021/05/26 11:52:52;;;;;;;4.80;1.30;;;16.70;66.60;;;;;;5038972;28;20562;-71
2021/05/26 11:55:22;;;;;;;7.28;1.65;;;16.90;66.20;;;;;;5036929;28;20473;-70
2021/05/26 11:57:52;;;;;;;3.53;0.60;;;17.00;64.10;;;;;;5036845;28;20090;-71
2021/05/26 12:00:26;;;;;;;3.80;0.60;;;17.00;61.50;;;;;;5033316;28;20063;-72
2021/05/26 12:02:58;;;;;;;0.65;0.50;;;17.10;62.00;;;;;;5035664;28;20025;-73
2021/05/26 12:05:41;;;;;;;2.28;1.20;;;17.20;60.60;;;;;;5035610;28;20025;-71
2021/05/26 12:08:17;;;;;;;2.58;0.50;;;17.20;60.00;;;;;;5031623;28;20029;-74
2021/05/26 12:10:44;;;;;;;3.60;0.63;;;17.40;59.60;;;;;;5036219;28;20036;-73
2021/05/26 12:13:10;;;;;;;3.05;0.55;;;17.70;59.70;;;;;;5038551;28;20091;-73
2021/05/26 12:15:36;;;;;;;1.75;0.52;;;17.90;57.70;;;;;;5036032;28;20021;-73
2021/05/26 12:18:03;;;;;;;1.38;0.52;;;17.90;56.80;;;;;;5034353;28;20029;-75
2021/05/26 12:20:28;;;;;;;1.48;0.50;;;17.90;56.60;;;;;;5034622;28;20025;-73
2021/05/26 12:22:57;;;;;;;0.93;0.50;;;17.80;57.20;;;;;;5045334;28;20040;-74
2021/05/26 12:25:38;;;;;;;2.05;0.85;;;17.70;57.50;;;;;;5039892;28;20474;-74
2021/05/26 12:28:18;;;;;;;5.13;0.75;;;17.70;57.60;;;;;;5040485;28;20036;-72
2021/05/26 12:30:44;;;;;;;3.50;0.50;;;17.80;57.40;;;;;;5045639;28;20083;-78
2021/05/26 12:33:14;;;;;;;3.10;0.57;;;18.00;57.00;;;;;;5038953;28;20030;-77
2021/05/26 12:35:40;;;;;;;1.08;0.30;;;18.20;56.50;;;;;;5038146;28;20128;-78
2021/05/26 12:38:36;;;;;;;1.38;0.65;;;18.40;55.10;;;;;;5036507;28;20108;-76
2021/05/26 12:41:22;;;;;;;1.15;0.40;;;18.50;54.70;;;;;;5032413;28;20116;-76
2021/05/26 12:43:48;;;;;;;12.02;0.68;;;18.50;54.70;;;;;;5038949;28;20119;-78
2021/05/26 12:46:36;;;;;;;1.95;0.85;;;18.40;55.40;;;;;;5039749;28;20108;-75
2021/05/26 12:49:04;;;;;;;4.70;1.48;;;18.30;55.60;;;;;;5039491;28;20484;-76
2021/05/26 12:51:39;;;;;;;11.55;1.67;;;18.20;55.90;;;;;;5037615;28;20132;-76
2021/05/26 12:54:04;;;;;;;5.43;0.93;;;18.20;55.70;;;;;;5039847;28;20503;-77
2021/05/26 12:56:30;;;;;;;36.95;3.70;;;18.10;55.60;;;;;;5039105;28;20030;-76
2021/05/26 12:58:56;;;;;;;88.68;8.20;;;18.10;54.80;;;;;;5039683;28;20404;-75
2021/05/26 13:01:21;;;;;;;17.95;2.03;;;18.20;55.70;;;;;;5039277;28;20091;-75
2021/05/26 13:03:46;;;;;;;9.13;1.25;;;18.30;55.60;;;;;;5039452;28;20403;-76
2021/05/26 13:06:14;;;;;;;8.80;1.27;;;18.40;54.80;;;;;;5039741;28;20100;-75
2021/05/26 13:08:54;;;;;;;9.23;1.20;;;18.50;54.50;;;;;;5039708;28;20025;-76
2021/05/26 13:11:38;;;;;;;3.22;0.60;;;18.50;53.20;;;;;;5039551;28;20026;-76
2021/05/26 13:14:04;;;;;;;4.72;0.70;;;18.60;53.80;;;;;;5037546;28;20036;-74